Flight Track Log - Related Links

Times and Time Zones

All times are in EDT time to prevent confusion due to time zone crossing. See the WIS101 flight status page for this flight to view local times or setup timezone preferences in your user account.

Time Position Orientation Groundspeed Altitude Reporting Facility
EDT Latitude Longitude Course Direction KTS MPH feet Rate Location/Type
Tue 07:25:07 PM 46.9925 -96.6819 83° East 174 200 3,500  Level Minneapolis Center
Tue 07:26:21 PM 46.9425 -96.6061 134° Southeast 192 221 4,300 662 Climbing Minneapolis Center
Tue 07:27:23 PM 46.8992 -96.5647 147° Southeast 194 223 5,000 629 Climbing Minneapolis Center
Tue 07:28:00 PM 46.7378 -96.8279 129° Southeast  Level FlightAware Approximate
Tue 07:28:25 PM 46.8511 -96.5331 156° South 181 208 5,600  Level Minneapolis Center
Tue 07:29:00 PM 46.7007 -96.7612 129° Southeast  Level FlightAware Approximate
Tue 07:29:27 PM 46.8019 -96.4992 155° Southeast 186 214 6,200  Level Minneapolis Center
Tue 07:30:29 PM 46.7514 -96.4650 155° Southeast 191 220 6,700 537 Climbing Minneapolis Center
Tue 07:31:30 PM 46.6986 -96.4303 156° South 197 227 7,300 537 Climbing Minneapolis Center
Tue 07:32:32 PM 46.6508 -96.3975 155° Southeast 197 227 7,800 484 Climbing Minneapolis Center
Tue 07:33:34 PM 46.5967 -96.3628 156° South 202 232 8,300 532 Climbing Minneapolis Center
Tue 07:34:36 PM 46.5433 -96.3267 155° Southeast 204 235 8,900 341 Climbing Minneapolis Center
Tue 07:35:37 PM 46.4867 -96.2881 155° Southeast 215 247 9,000 49 Climbing Minneapolis Center
Tue 07:36:39 PM 46.4306 -96.2419 150° Southeast 222 255 9,000 -48 Level Minneapolis Center
Tue 07:37:41 PM 46.3933 -96.1697 127° Southeast 228 262 8,900 -49 Descending Minneapolis Center
Tue 07:38:42 PM 46.3522 -96.1000 130° Southeast 221 254 8,900 49 Level Minneapolis Center
Tue 07:39:44 PM 46.3147 -96.0256 126° Southeast 219 252 9,000  Climbing Minneapolis Center
Tue 07:40:46 PM 46.2781 -95.9461 124° Southeast 226 260 8,900  Descending Minneapolis Center
Tue 07:41:48 PM 46.2444 -95.8764 125° Southeast 221 254 9,000 49 Climbing Minneapolis Center
Tue 07:42:49 PM 46.2131 -95.8075 123° Southeast 220 253 9,000  Level Minneapolis Center
Tue 07:44:03 PM 46.1722 -95.7181 123° Southeast 221 254 9,000 -44 Level Minneapolis Center
Tue 07:45:05 PM 46.1294 -95.6267 124° Southeast 224 258 8,900  Descending Minneapolis Center
Tue 07:46:07 PM 46.0944 -95.5517 124° Southeast 226 260 9,000 49 Climbing Minneapolis Center
Tue 07:47:08 PM 46.0589 -95.4786 125° Southeast 226 260 9,000  Level Minneapolis Center
Tue 07:48:10 PM 46.0239 -95.4011 123° Southeast 227 261 9,000  Level Minneapolis Center
Tue 07:49:12 PM 45.9906 -95.3211 121° Southeast 229 264 9,000  Level Minneapolis Center
Tue 07:50:13 PM 45.9658 -95.2569 119° Southeast 229 264 9,000 -49 Level Minneapolis Center
Tue 07:51:15 PM 45.9192 -95.1486 122° Southeast 228 262 8,900  Descending Minneapolis Center
Tue 07:52:17 PM 45.8847 -95.0731 123° Southeast 227 261 9,000  Climbing Minneapolis Center
Tue 07:53:19 PM 45.8550 -95.0014 121° Southeast 228 262 8,900  Descending Minneapolis Center
Tue 07:54:21 PM 45.8200 -94.9261 124° Southeast 228 262 9,000 49 Climbing Minneapolis Center
Tue 07:55:22 PM 45.7878 -94.8478 121° Southeast 228 262 9,000 49 Level Minneapolis Center
Tue 07:56:24 PM 45.7472 -94.7514 121° Southeast 235 270 9,100  Climbing Minneapolis Center
Tue 07:57:26 PM 45.7117 -94.6694 122° Southeast 240 276 9,000 -49 Descending Minneapolis Center
Tue 07:58:27 PM 45.6756 -94.5911 123° Southeast 239 275 9,000 49 Level Minneapolis Center
Tue 07:59:29 PM 45.6411 -94.5142 123° Southeast 234 269 9,100 -97 Climbing Minneapolis Center
Tue 08:00:31 PM 45.6058 -94.4356 123° Southeast 235 270 8,800 -484 Descending Minneapolis Center
Tue 08:01:33 PM 45.5697 -94.3464 120° Southeast 249 287 8,100 -683 Descending Minneapolis Center
Tue 08:02:34 PM 45.5322 -94.2550 120° Southeast 263 303 7,400 -732 Descending Minneapolis Center
Tue 08:03:36 PM 45.4883 -94.1550 122° Southeast 249 287 6,600 -726 Descending Minneapolis Center
Tue 08:04:38 PM 45.4531 -94.0744 122° Southeast 241 277 5,900 -662 Descending Minneapolis Center
Tue 08:05:52 PM 45.4161 -93.9944 123° Southeast 242 278 5,100 -397 Descending Minneapolis Center
Tue 08:06:54 PM 45.3764 -93.9053 122° Southeast 223 257 5,000 -48 Descending Minneapolis Center
Tue 08:07:56 PM 45.3464 -93.8344 121° Southeast 211 243 5,000  Level Minneapolis Center
Tue 08:08:57 PM 45.3153 -93.7656 123° Southeast 209 241 5,000  Level Minneapolis Center
Tue 08:09:59 PM 45.2808 -93.6822 120° Southeast 205 236 5,000  Level Minneapolis Center
Tue 08:11:01 PM 45.2536 -93.6158 120° Southeast 198 228 5,000 -97 Level Minneapolis Center
Tue 08:12:03 PM 45.2325 -93.5439 113° Southeast 197 227 4,800 -435 Descending Minneapolis Center
Tue 08:13:05 PM 45.2117 -93.4658 111° Southeast 209 241 4,100 -732 Descending Minneapolis Center
Tue 08:14:06 PM 45.1900 -93.3831 110° East 221 254 3,300 -927 Descending Minneapolis Center
Tue 08:15:08 PM 45.1694 -93.2994 109° East 224 258 2,200 -629 Descending Minneapolis Center
Tue 08:16:10 PM 45.1667 -93.2211 93° East 197 227 2,000 -387 Descending Minneapolis Center
Tue 08:17:12 PM 45.1450 -93.1819 128° Southeast 137 158 1,400 -390 Descending Minneapolis Center
Tue 08:18:13 PM 45.1458 -93.2178 272° West 125 144 1,200 -197 Descending Minneapolis Center
Tue 08:20:00 PM 45.1449 -93.2102 90° East  Level Estimated

Login

Don't have an account? Register now (free) for customized features, flight alerts, and more!